Time;durP1;ratioP1;P1;durP2;ratioP2;P2;SDS_P1;SDS_P2;PMS_P1;PMS_P2;Temp;Humidity;BMP_temperature;BMP_pressure;BME280_temperature;BME280_humidity;BME280_pressure;Samples;Min_cycle;Max_cycle;Signal;HPM_P1;HPM_P2
2022/07/28 00:01:23;;;;;;;3.40;0.95;;;16.60;99.90;;;;;;4199903;28;20270;-86
2022/07/28 00:03:23;;;;;;;4.72;0.70;;;16.60;99.90;;;;;;4183509;28;20203;-86
2022/07/28 00:05:24;;;;;;;2.45;0.90;;;16.50;99.90;;;;;;4183112;28;20217;-92
2022/07/28 00:07:25;;;;;;;3.83;0.80;;;16.50;99.90;;;;;;4183268;28;20184;-86
2022/07/28 00:09:26;;;;;;;4.22;0.93;;;16.50;99.90;;;;;;4199781;28;20277;-86
2022/07/28 00:11:28;;;;;;;3.47;1.30;;;16.50;99.90;;;;;;4199787;28;20171;-86
2022/07/28 00:13:29;;;;;;;4.00;1.05;;;16.40;99.90;;;;;;4183142;28;20178;-86
2022/07/28 00:15:29;;;;;;;3.70;0.85;;;16.40;99.90;;;;;;4183009;28;20184;-86
2022/07/28 00:17:31;;;;;;;3.83;1.17;;;16.40;99.90;;;;;;4199601;28;20178;-95
2022/07/28 00:19:31;;;;;;;4.85;0.95;;;16.30;99.90;;;;;;4182973;28;20168;-86
2022/07/28 00:21:32;;;;;;;5.38;1.63;;;16.30;99.90;;;;;;4182810;28;20721;-88
2022/07/28 00:23:33;;;;;;;8.02;1.48;;;16.30;99.90;;;;;;4199432;28;20171;-86
2022/07/28 00:25:33;;;;;;;2.97;0.98;;;16.20;99.90;;;;;;4198787;28;20213;-87
2022/07/28 00:27:34;;;;;;;4.88;0.90;;;16.20;99.90;;;;;;4182951;28;20171;-86
2022/07/28 00:29:35;;;;;;;2.03;0.90;;;16.10;99.90;;;;;;4182947;28;20171;-86
2022/07/28 00:31:36;;;;;;;6.28;1.40;;;16.10;99.90;;;;;;4183024;28;20191;-86
2022/07/28 00:33:36;;;;;;;4.35;1.25;;;16.00;99.90;;;;;;4182741;28;20174;-86
2022/07/28 00:35:37;;;;;;;2.47;1.10;;;16.00;99.90;;;;;;4182598;28;20174;-93
2022/07/28 00:37:38;;;;;;;7.15;1.20;;;16.00;99.90;;;;;;4182684;28;20191;-86
2022/07/28 00:39:39;;;;;;;3.42;1.00;;;15.90;99.90;;;;;;4199533;28;20571;-93
2022/07/28 00:41:41;;;;;;;6.15;1.20;;;15.90;99.90;;;;;;4199664;28;20194;-96
2022/07/28 00:43:44;;;;;;;7.10;1.30;;;16.00;99.90;;;;;;4182594;28;20237;-94
2022/07/28 00:45:46;;;;;;;4.07;0.98;;;16.00;99.90;;;;;;4198764;28;20635;-86
2022/07/28 00:47:46;;;;;;;4.25;0.95;;;15.90;99.90;;;;;;4182569;28;20669;-86
2022/07/28 00:49:49;;;;;;;6.50;1.13;;;15.90;99.90;;;;;;4182461;28;20183;-86
2022/07/28 00:51:49;;;;;;;4.60;1.15;;;15.90;99.90;;;;;;4199201;28;20201;-86
2022/07/28 00:53:51;;;;;;;4.00;1.20;;;15.80;99.90;;;;;;4182728;28;20592;-94
2022/07/28 00:55:52;;;;;;;3.95;1.50;;;15.80;99.90;;;;;;4182458;28;20175;-95
2022/07/28 00:57:53;;;;;;;5.07;1.23;;;15.70;99.90;;;;;;4198835;28;20171;-86
2022/07/28 00:59:53;;;;;;;2.83;1.13;;;15.80;99.90;;;;;;4199147;28;20174;-86
2022/07/28 01:01:55;;;;;;;3.60;0.90;;;15.70;99.90;;;;;;4200184;28;20187;-86
2022/07/28 01:04:00;;;;;;;4.38;0.93;;;15.70;99.90;;;;;;4200042;28;20167;-86
2022/07/28 01:06:07;;;;;;;5.57;1.20;;;15.70;99.90;;;;;;4198827;28;20244;-86
2022/07/28 01:08:47;;;;;;;5.40;0.93;;;15.70;99.90;;;;;;4219158;22;20220;-88
2022/07/28 01:11:00;;;;;;;6.05;1.13;;;15.70;99.90;;;;;;4198992;28;20179;-91
2022/07/28 01:13:18;;;;;;;5.82;1.23;;;15.70;99.90;;;;;;4215540;28;20628;-90
2022/07/28 01:15:29;;;;;;;3.92;1.10;;;15.70;99.90;;;;;;4216706;28;20277;-89
2022/07/28 01:18:01;;;;;;;3.70;1.15;;;15.70;99.90;;;;;;4198980;28;20175;-91
2022/07/28 01:20:06;;;;;;;10.00;1.10;;;15.70;99.90;;;;;;4198828;28;20167;-91
2022/07/28 01:22:11;;;;;;;6.35;1.20;;;15.70;99.90;;;;;;4215593;28;20190;-88
2022/07/28 01:24:38;;;;;;;3.35;0.88;;;15.60;99.90;;;;;;4215472;28;20213;-91
2022/07/28 01:27:03;;;;;;;7.22;0.98;;;15.70;99.90;;;;;;4215683;28;20246;-88
2022/07/28 01:29:37;;;;;;;5.13;1.17;;;15.60;99.90;;;;;;4198671;28;20179;-88
2022/07/28 01:31:42;;;;;;;5.75;1.13;;;15.60;99.90;;;;;;4198401;28;20293;-88
2022/07/28 01:33:48;;;;;;;6.25;1.15;;;15.50;99.90;;;;;;4215167;28;20181;-91
2022/07/28 01:36:06;;;;;;;6.78;1.50;;;15.50;99.90;;;;;;4215051;28;20205;-88
2022/07/28 01:38:10;;;;;;;3.22;1.17;;;15.40;99.90;;;;;;4215208;28;20166;-90
2022/07/28 01:40:15;;;;;;;2.97;1.10;;;15.30;99.90;;;;;;4215154;28;20208;-88
2022/07/28 01:42:17;;;;;;;6.45;1.25;;;15.40;99.90;;;;;;4198019;28;20198;-88
2022/07/28 01:44:22;;;;;;;8.57;1.13;;;15.40;99.90;;;;;;4214769;28;20659;-88
2022/07/28 01:46:24;;;;;;;4.10;1.13;;;15.30;99.90;;;;;;4215024;28;20178;-89
2022/07/28 01:48:27;;;;;;;5.57;1.20;;;15.40;99.90;;;;;;4215180;28;20178;-90
2022/07/28 01:50:29;;;;;;;4.10;1.30;;;15.30;99.90;;;;;;4198324;28;20175;-89
2022/07/28 01:52:31;;;;;;;5.63;1.23;;;15.30;99.90;;;;;;4215260;28;20217;-88
2022/07/28 01:54:34;;;;;;;5.63;1.38;;;15.30;99.90;;;;;;4214870;28;20264;-90
2022/07/28 01:56:35;;;;;;;9.15;1.73;;;15.20;99.90;;;;;;4214956;28;20181;-90
2022/07/28 01:58:37;;;;;;;8.02;1.40;;;15.10;99.90;;;;;;4198399;28;20163;-88
2022/07/28 02:00:38;;;;;;;10.18;1.23;;;15.20;99.90;;;;;;4198171;28;20202;-88
2022/07/28 02:02:42;;;;;;;4.80;1.30;;;15.20;99.90;;;;;;4198025;28;20612;-89
2022/07/28 02:04:44;;;;;;;3.08;1.27;;;15.20;99.90;;;;;;4197853;28;20260;-90
2022/07/28 02:06:46;;;;;;;3.60;1.25;;;15.10;99.90;;;;;;4214684;28;20227;-88
2022/07/28 02:08:49;;;;;;;4.38;1.20;;;15.00;99.90;;;;;;4214608;28;20197;-88
2022/07/28 02:13:13;;;;;;;3.92;1.17;;;14.90;99.90;;;;;;4214876;28;20182;-90
2022/07/28 02:15:14;;;;;;;5.00;1.30;;;14.90;99.90;;;;;;4214694;28;20220;-89
2022/07/28 02:17:21;;;;;;;4.70;1.40;;;14.80;99.90;;;;;;4214693;28;20252;-89
2022/07/28 02:19:23;;;;;;;6.00;1.50;;;14.80;99.90;;;;;;4198025;28;20256;-90
2022/07/28 02:21:25;;;;;;;7.47;1.35;;;14.90;99.90;;;;;;4214368;28;20177;-88
2022/07/28 02:23:27;;;;;;;4.40;1.13;;;14.90;99.90;;;;;;4214552;28;20172;-88
2022/07/28 02:25:29;;;;;;;7.28;1.40;;;14.90;99.90;;;;;;4214499;28;20205;-88
2022/07/28 02:27:47;;;;;;;2.88;1.10;;;14.90;99.90;;;;;;4214723;28;20188;-88
2022/07/28 02:29:52;;;;;;;5.60;1.20;;;14.80;99.90;;;;;;4197805;28;20182;-89
2022/07/28 02:32:22;;;;;;;5.30;1.00;;;14.90;99.90;;;;;;4197751;28;20190;-90
2022/07/28 02:34:26;;;;;;;7.38;1.25;;;14.90;99.90;;;;;;4212578;28;20191;-88
2022/07/28 02:36:36;;;;;;;3.95;1.45;;;14.80;99.90;;;;;;4197567;28;20175;-88
2022/07/28 02:38:40;;;;;;;8.30;1.17;;;14.80;99.90;;;;;;4214688;28;20177;-88
2022/07/28 02:40:43;;;;;;;5.35;1.38;;;14.80;99.90;;;;;;4214475;28;20178;-90
2022/07/28 02:42:47;;;;;;;6.30;1.35;;;14.80;99.90;;;;;;4214266;28;20285;-89
2022/07/28 02:44:59;;;;;;;4.30;1.13;;;14.80;99.90;;;;;;4214069;28;20209;-88
2022/07/28 02:47:03;;;;;;;2.20;1.13;;;14.80;99.90;;;;;;4197123;28;20174;-89
2022/07/28 02:49:12;;;;;;;4.15;1.30;;;14.80;99.90;;;;;;4214421;28;20273;-88
2022/07/28 02:51:16;;;;;;;7.57;1.40;;;14.80;99.90;;;;;;4197788;28;20175;-90
2022/07/28 02:53:17;;;;;;;7.72;1.23;;;14.80;99.90;;;;;;4214467;28;20274;-90
2022/07/28 02:55:18;;;;;;;5.38;1.08;;;14.80;99.90;;;;;;4214492;28;20162;-89
2022/07/28 02:57:22;;;;;;;4.25;1.17;;;14.70;99.90;;;;;;4214599;28;20182;-90
2022/07/28 02:59:23;;;;;;;4.93;1.35;;;14.70;99.90;;;;;;4197466;28;20624;-88
2022/07/28 03:01:24;;;;;;;5.05;1.20;;;14.70;99.90;;;;;;4214374;28;20178;-90
2022/07/28 03:03:26;;;;;;;2.80;1.17;;;14.70;99.90;;;;;;4214205;28;20175;-89
2022/07/28 03:05:27;;;;;;;4.53;1.08;;;14.70;99.90;;;;;;4214163;28;20206;-88
2022/07/28 03:07:30;;;;;;;3.97;1.27;;;14.70;99.90;;;;;;4214145;28;20293;-89
2022/07/28 03:09:41;;;;;;;3.63;1.08;;;14.70;99.90;;;;;;4197313;28;20186;-89
2022/07/28 03:11:51;;;;;;;7.25;1.58;;;14.80;99.90;;;;;;4213943;28;20225;-89
2022/07/28 03:13:52;;;;;;;5.85;1.20;;;14.80;99.90;;;;;;4214201;28;20653;-89
2022/07/28 03:15:53;;;;;;;7.40;1.40;;;14.80;99.90;;;;;;4197544;28;20177;-90
2022/07/28 03:17:54;;;;;;;5.15;1.20;;;14.80;99.90;;;;;;4213922;28;20182;-88
2022/07/28 03:19:55;;;;;;;6.25;1.25;;;14.90;99.90;;;;;;4197462;28;20163;-90
2022/07/28 03:21:55;;;;;;;6.65;1.40;;;14.90;99.90;;;;;;4197267;28;20203;-90
2022/07/28 03:23:56;;;;;;;8.30;1.05;;;14.90;99.90;;;;;;4197291;28;20232;-89
2022/07/28 03:26:04;;;;;;;6.57;1.17;;;14.90;99.90;;;;;;4197171;28;20179;-90
2022/07/28 03:28:08;;;;;;;4.55;1.30;;;14.90;99.90;;;;;;4214064;28;20166;-88
2022/07/28 03:30:13;;;;;;;4.47;1.38;;;14.90;99.90;;;;;;4213953;28;20212;-88
2022/07/28 03:32:15;;;;;;;6.80;1.15;;;14.80;99.90;;;;;;4197048;28;20251;-90
2022/07/28 03:34:15;;;;;;;5.50;1.20;;;14.80;99.90;;;;;;4213857;28;20173;-88
2022/07/28 03:36:23;;;;;;;7.10;1.50;;;14.70;99.90;;;;;;4197290;28;20186;-88
2022/07/28 03:38:32;;;;;;;5.28;1.27;;;14.70;99.90;;;;;;4197359;28;20178;-89
2022/07/28 03:40:35;;;;;;;9.77;1.25;;;14.70;99.90;;;;;;4213764;28;20178;-89
2022/07/28 03:42:37;;;;;;;5.90;1.38;;;14.70;99.90;;;;;;4213760;28;20186;-89
2022/07/28 03:44:39;;;;;;;3.50;1.20;;;14.60;99.90;;;;;;4213744;28;20300;-89
2022/07/28 03:46:44;;;;;;;7.10;1.30;;;14.60;99.90;;;;;;4214002;28;20170;-89
2022/07/28 03:48:45;;;;;;;5.35;1.08;;;14.50;99.90;;;;;;4213876;28;20251;-92
2022/07/28 03:50:46;;;;;;;5.18;1.20;;;14.50;99.90;;;;;;4196902;28;20171;-88
2022/07/28 03:52:46;;;;;;;8.48;0.98;;;14.50;99.90;;;;;;4213535;28;20677;-88
2022/07/28 03:54:47;;;;;;;3.25;1.08;;;14.40;99.90;;;;;;4197039;28;20171;-88
2022/07/28 03:56:48;;;;;;;4.43;1.23;;;14.40;99.90;;;;;;4196871;28;20179;-89
2022/07/28 03:58:48;;;;;;;5.32;1.30;;;14.40;99.90;;;;;;4197100;28;20246;-90
2022/07/28 04:00:50;;;;;;;3.22;1.40;;;14.40;99.90;;;;;;4199731;28;20201;-88
2022/07/28 04:02:51;;;;;;;9.15;1.50;;;14.40;99.90;;;;;;4200171;28;20193;-89
2022/07/28 04:04:51;;;;;;;7.50;1.20;;;14.30;99.90;;;;;;4216546;28;20205;-88
2022/07/28 04:06:52;;;;;;;4.50;1.33;;;14.30;99.90;;;;;;4199851;28;20174;-90
2022/07/28 04:08:54;;;;;;;4.97;1.47;;;14.20;99.90;;;;;;4199863;28;20242;-89
2022/07/28 04:10:55;;;;;;;4.57;1.20;;;14.20;99.90;;;;;;4199835;28;20216;-89
2022/07/28 04:12:57;;;;;;;5.20;1.33;;;14.10;99.90;;;;;;4199771;28;20283;-89
2022/07/28 04:14:58;;;;;;;2.55;1.17;;;14.00;99.90;;;;;;4199790;28;20167;-90
2022/07/28 04:16:58;;;;;;;7.57;1.53;;;13.90;99.90;;;;;;4216601;28;20205;-90
2022/07/28 04:18:59;;;;;;;6.47;1.45;;;13.90;99.90;;;;;;4199853;28;20167;-88
2022/07/28 04:21:00;;;;;;;3.67;1.50;;;13.90;99.90;;;;;;4199742;28;20264;-90
2022/07/28 04:23:00;;;;;;;5.57;1.33;;;13.90;99.90;;;;;;4216554;28;20198;-90
2022/07/28 04:25:01;;;;;;;2.95;1.40;;;13.80;99.90;;;;;;4199810;28;20544;-89
2022/07/28 04:27:02;;;;;;;6.33;1.30;;;13.80;99.90;;;;;;4200014;28;20175;-91
2022/07/28 04:29:03;;;;;;;3.90;1.40;;;13.80;99.90;;;;;;4199682;28;20675;-90
2022/07/28 04:31:04;;;;;;;4.23;1.30;;;13.80;99.90;;;;;;4199864;28;20167;-91
2022/07/28 04:33:05;;;;;;;4.35;1.30;;;13.80;99.90;;;;;;4216513;28;20221;-89
2022/07/28 04:35:07;;;;;;;4.47;1.40;;;13.80;99.90;;;;;;4199743;28;20210;-89
2022/07/28 04:37:08;;;;;;;9.73;1.73;;;13.80;99.90;;;;;;4199658;28;20578;-90
2022/07/28 04:39:12;;;;;;;4.23;1.83;;;13.80;99.90;;;;;;4216268;28;20181;-88
2022/07/28 04:41:13;;;;;;;4.88;1.63;;;13.80;99.90;;;;;;4199258;28;20179;-89
2022/07/28 04:43:14;;;;;;;5.57;1.42;;;13.80;99.90;;;;;;4215571;28;20182;-91
2022/07/28 04:45:15;;;;;;;11.10;1.83;;;13.80;99.90;;;;;;4215976;28;20250;-90
2022/07/28 04:47:16;;;;;;;4.67;1.63;;;13.80;99.90;;;;;;4199482;28;20159;-88
2022/07/28 04:49:17;;;;;;;9.33;2.10;;;13.80;99.90;;;;;;4199081;28;20179;-90
2022/07/28 04:51:18;;;;;;;8.63;1.77;;;13.80;99.90;;;;;;4199115;28;20595;-90
2022/07/28 04:53:19;;;;;;;8.18;1.30;;;13.70;99.90;;;;;;4199077;28;20262;-90
2022/07/28 04:55:20;;;;;;;10.60;1.53;;;13.80;99.90;;;;;;4199309;28;20630;-88
2022/07/28 04:57:21;;;;;;;3.03;1.50;;;13.70;99.90;;;;;;4215912;28;20196;-91
2022/07/28 04:59:22;;;;;;;2.42;1.38;;;13.70;99.90;;;;;;4199210;28;20173;-88
2022/07/28 05:01:22;;;;;;;7.27;1.70;;;13.80;99.90;;;;;;4198782;28;20202;-89
2022/07/28 05:03:23;;;;;;;4.63;1.38;;;13.80;99.90;;;;;;4215697;28;20178;-89
2022/07/28 05:05:24;;;;;;;5.00;1.40;;;13.80;99.90;;;;;;4198882;28;20324;-89
2022/07/28 05:07:25;;;;;;;4.63;1.55;;;13.80;99.90;;;;;;4198798;28;20174;-91
2022/07/28 05:09:26;;;;;;;8.53;1.50;;;13.80;99.90;;;;;;4215521;28;20190;-91
2022/07/28 05:11:27;;;;;;;5.50;1.40;;;13.80;99.90;;;;;;4198358;28;20167;-88
2022/07/28 05:13:29;;;;;;;3.00;1.37;;;13.80;99.90;;;;;;4198402;28;20190;-88
2022/07/28 05:15:29;;;;;;;7.60;1.63;;;13.80;99.90;;;;;;4215669;28;20262;-90
2022/07/28 05:17:30;;;;;;;6.60;1.60;;;13.80;99.90;;;;;;4198980;28;20174;-89
2022/07/28 05:19:31;;;;;;;5.60;2.07;;;13.80;99.90;;;;;;4198833;28;20172;-90
2022/07/28 05:21:31;;;;;;;7.07;1.75;;;13.90;99.90;;;;;;4198731;28;20233;-90
2022/07/28 05:23:32;;;;;;;7.57;1.63;;;13.90;99.90;;;;;;4215323;28;20181;-90
2022/07/28 05:25:33;;;;;;;5.10;1.60;;;14.00;99.90;;;;;;4198603;28;20252;-89
2022/07/28 05:27:34;;;;;;;5.60;1.23;;;14.00;99.90;;;;;;4198796;28;20171;-89
2022/07/28 05:29:39;;;;;;;6.00;1.93;;;14.10;99.90;;;;;;4215326;28;20170;-88
2022/07/28 05:31:40;;;;;;;5.30;1.70;;;14.20;99.90;;;;;;4198658;28;20619;-89
2022/07/28 05:33:41;;;;;;;6.15;1.70;;;14.20;99.90;;;;;;4215406;28;20185;-89
2022/07/28 05:35:43;;;;;;;4.50;1.80;;;14.30;99.90;;;;;;4198378;28;20269;-90
2022/07/28 05:37:44;;;;;;;4.88;1.77;;;14.40;99.90;;;;;;4198690;28;20171;-89
2022/07/28 05:39:44;;;;;;;5.25;1.63;;;14.40;99.90;;;;;;4198529;28;20240;-89
2022/07/28 05:41:45;;;;;;;4.70;1.33;;;14.50;99.90;;;;;;4198477;28;20194;-90
2022/07/28 05:43:46;;;;;;;6.38;1.58;;;14.60;99.90;;;;;;4215043;28;20186;-90
2022/07/28 05:45:47;;;;;;;6.00;1.58;;;14.80;99.90;;;;;;4198676;28;20218;-89
2022/07/28 05:47:51;;;;;;;6.97;1.70;;;14.90;99.90;;;;;;4215072;28;20170;-88
2022/07/28 05:49:51;;;;;;;5.50;1.52;;;14.90;99.90;;;;;;4198146;28;20635;-90
2022/07/28 05:51:52;;;;;;;4.32;1.35;;;15.10;99.90;;;;;;4215009;28;20234;-89
2022/07/28 05:53:53;;;;;;;6.28;1.80;;;15.20;99.90;;;;;;4198218;28;20175;-89
2022/07/28 05:55:53;;;;;;;3.30;1.40;;;15.30;99.90;;;;;;4215059;28;20212;-89
2022/07/28 05:57:54;;;;;;;4.43;1.58;;;15.40;99.90;;;;;;4198212;28;20210;-90
2022/07/28 05:59:56;;;;;;;5.63;1.60;;;15.50;99.90;;;;;;4214943;28;20258;-88
2022/07/28 06:01:56;;;;;;;5.85;1.67;;;15.50;99.90;;;;;;4198113;28;20186;-90
2022/07/28 06:03:57;;;;;;;4.95;1.52;;;15.70;99.90;;;;;;4198252;28;20181;-88
2022/07/28 06:05:58;;;;;;;4.63;1.58;;;16.00;99.90;;;;;;4198178;28;20178;-89
2022/07/28 06:07:59;;;;;;;4.30;1.65;;;16.20;99.90;;;;;;4198107;28;20675;-89
2022/07/28 06:10:00;;;;;;;5.53;1.60;;;16.10;99.90;;;;;;4198148;28;20162;-88
2022/07/28 06:12:01;;;;;;;7.00;2.03;;;16.20;99.90;;;;;;4198033;28;20198;-89
2022/07/28 06:14:01;;;;;;;4.50;1.50;;;16.40;99.90;;;;;;4214883;28;20166;-89
2022/07/28 06:16:06;;;;;;;5.20;1.52;;;16.50;99.90;;;;;;4198068;28;20168;-89
2022/07/28 06:18:07;;;;;;;11.88;2.05;;;16.40;99.90;;;;;;4214701;28;20178;-91
2022/07/28 06:20:09;;;;;;;2.45;1.25;;;16.40;99.90;;;;;;4214678;28;20166;-89
2022/07/28 06:22:10;;;;;;;4.95;1.40;;;16.40;99.90;;;;;;4197017;28;20195;-88
2022/07/28 06:24:11;;;;;;;5.15;1.70;;;16.50;99.90;;;;;;4214481;28;20288;-91
2022/07/28 06:26:11;;;;;;;6.53;1.45;;;16.60;99.90;;;;;;4197904;28;20212;-89
2022/07/28 06:28:12;;;;;;;9.10;1.90;;;16.70;99.90;;;;;;4214655;28;20531;-89
2022/07/28 06:30:14;;;;;;;4.43;1.60;;;16.80;99.90;;;;;;4197813;28;20175;-88
2022/07/28 06:32:15;;;;;;;5.40;1.60;;;16.80;99.90;;;;;;4214320;28;20212;-91
2022/07/28 06:34:16;;;;;;;5.80;1.42;;;16.90;99.90;;;;;;4197779;28;20266;-89
2022/07/28 06:36:17;;;;;;;7.13;1.70;;;16.90;99.90;;;;;;4214532;28;20178;-90
2022/07/28 06:38:19;;;;;;;4.90;1.55;;;16.80;99.90;;;;;;4197704;28;20162;-90
2022/07/28 06:40:20;;;;;;;3.35;1.60;;;16.90;99.90;;;;;;4197606;28;20224;-90
2022/07/28 06:42:21;;;;;;;7.72;1.52;;;16.90;99.90;;;;;;4214376;28;20200;-90
2022/07/28 06:44:23;;;;;;;6.03;1.55;;;16.80;99.90;;;;;;4197832;28;20260;-88
2022/07/28 06:46:23;;;;;;;7.55;1.45;;;16.70;99.90;;;;;;4214293;28;20718;-90
2022/07/28 06:48:24;;;;;;;5.70;1.60;;;16.70;99.90;;;;;;4197522;28;20532;-89
2022/07/28 06:50:25;;;;;;;3.97;1.20;;;16.70;99.90;;;;;;4197567;28;20240;-89
2022/07/28 06:52:26;;;;;;;3.33;1.58;;;16.90;99.90;;;;;;4213967;28;20202;-89
2022/07/28 06:54:27;;;;;;;5.38;1.48;;;17.20;99.90;;;;;;4197655;28;20178;-90
2022/07/28 06:56:27;;;;;;;6.85;1.70;;;17.40;99.90;;;;;;4197449;28;20270;-89
2022/07/28 06:58:28;;;;;;;5.25;1.60;;;17.60;99.90;;;;;;4214196;28;20254;-91
2022/07/28 07:00:29;;;;;;;10.07;1.42;;;17.80;99.90;;;;;;4214219;28;20179;-91
2022/07/28 07:02:30;;;;;;;5.47;1.42;;;17.90;99.90;;;;;;4197410;28;20209;-89
2022/07/28 07:04:30;;;;;;;9.02;1.40;;;18.00;99.90;;;;;;4213974;28;20217;-90
2022/07/28 07:06:31;;;;;;;2.10;1.23;;;18.00;99.90;;;;;;4197344;28;20287;-90
2022/07/28 07:08:32;;;;;;;5.20;1.73;;;18.10;99.90;;;;;;4198255;28;20663;-90
2022/07/28 07:10:34;;;;;;;5.53;1.50;;;18.10;99.90;;;;;;4197429;28;20197;-88
2022/07/28 07:12:35;;;;;;;6.07;1.67;;;18.20;99.90;;;;;;4197446;28;20663;-88
2022/07/28 07:14:36;;;;;;;8.05;1.50;;;18.10;99.90;;;;;;4214227;28;20170;-91
2022/07/28 07:16:37;;;;;;;5.45;1.90;;;17.90;99.90;;;;;;4214185;28;20509;-90
2022/07/28 07:18:37;;;;;;;4.20;1.60;;;18.00;99.90;;;;;;4197693;28;20157;-88
2022/07/28 07:20:38;;;;;;;9.38;1.70;;;18.10;99.90;;;;;;4197186;28;20178;-88
2022/07/28 07:22:44;;;;;;;6.18;1.60;;;18.10;99.90;;;;;;4197471;28;20199;-89
2022/07/28 07:24:44;;;;;;;6.28;1.40;;;18.00;99.90;;;;;;4197188;28;20212;-89
2022/07/28 07:26:45;;;;;;;4.13;1.27;;;18.50;99.90;;;;;;4213841;28;20551;-89
2022/07/28 07:28:46;;;;;;;5.05;1.35;;;19.50;99.90;;;;;;4197230;28;20705;-91
2022/07/28 07:30:47;;;;;;;5.20;1.58;;;20.30;99.90;;;;;;4197588;28;20163;-89
2022/07/28 07:32:48;;;;;;;4.07;1.00;;;20.90;99.90;;;;;;4197575;28;20277;-88
2022/07/28 07:34:48;;;;;;;4.85;1.35;;;21.40;99.90;;;;;;4216980;28;20733;-87
2022/07/28 07:36:49;;;;;;;4.63;1.40;;;21.50;99.90;;;;;;4217317;28;20162;-89
2022/07/28 07:38:50;;;;;;;6.50;1.40;;;21.70;99.90;;;;;;4217309;28;20173;-90
2022/07/28 07:40:50;;;;;;;10.95;1.85;;;22.20;99.90;;;;;;4200438;28;20643;-91
2022/07/28 07:42:51;;;;;;;6.13;1.30;;;22.70;99.90;;;;;;4200227;28;20205;-88
2022/07/28 07:44:52;;;;;;;3.40;1.35;;;23.30;99.90;;;;;;4200069;28;20221;-87
2022/07/28 07:46:54;;;;;;;5.10;1.20;;;23.40;99.90;;;;;;4216920;28;20166;-88
2022/07/28 07:48:55;;;;;;;6.60;1.27;;;22.90;99.90;;;;;;4200205;28;20171;-87
2022/07/28 07:50:55;;;;;;;2.90;1.00;;;22.30;99.90;;;;;;4216927;28;20170;-88
2022/07/28 07:52:56;;;;;;;7.68;1.40;;;21.90;99.90;;;;;;4199998;28;20186;-90
2022/07/28 07:54:57;;;;;;;4.18;1.30;;;21.80;99.90;;;;;;4200208;28;20194;-88
2022/07/28 07:56:58;;;;;;;2.88;1.00;;;21.90;99.90;;;;;;4199877;28;20174;-88
2022/07/28 07:58:58;;;;;;;4.40;1.20;;;21.80;99.90;;;;;;4216718;28;20170;-89
2022/07/28 08:00:59;;;;;;;3.85;1.15;;;21.60;99.90;;;;;;4200153;28;20233;-88
2022/07/28 08:03:00;;;;;;;5.97;1.33;;;21.50;99.90;;;;;;4216731;28;20285;-88
2022/07/28 08:05:00;;;;;;;3.40;1.17;;;21.40;99.90;;;;;;4199744;28;20206;-90
2022/07/28 08:07:01;;;;;;;4.32;1.20;;;21.70;99.90;;;;;;4199873;28;20171;-88
2022/07/28 08:09:02;;;;;;;4.90;1.05;;;22.10;99.90;;;;;;4199915;28;20183;-89
2022/07/28 08:11:03;;;;;;;2.92;1.05;;;22.30;99.90;;;;;;4200349;28;20174;-88
2022/07/28 08:13:05;;;;;;;3.55;1.00;;;21.80;99.90;;;;;;4199822;28;20198;-90
2022/07/28 08:15:06;;;;;;;8.02;1.27;;;21.10;99.90;;;;;;4199747;28;20163;-90
2022/07/28 08:17:07;;;;;;;3.75;1.00;;;20.50;99.90;;;;;;4199800;28;20306;-88
2022/07/28 08:19:08;;;;;;;3.15;0.90;;;20.30;99.90;;;;;;4199629;28;20624;-88
2022/07/28 08:21:09;;;;;;;4.72;1.20;;;20.60;99.90;;;;;;4216068;28;20233;-90
2022/07/28 08:23:10;;;;;;;3.95;0.98;;;20.90;99.90;;;;;;4216344;28;20277;-90
2022/07/28 08:25:10;;;;;;;3.25;1.13;;;20.80;99.90;;;;;;4199724;28;20211;-88
2022/07/28 08:27:11;;;;;;;4.10;1.20;;;20.70;99.90;;;;;;4216559;28;20166;-90
2022/07/28 08:29:12;;;;;;;3.55;0.82;;;20.70;99.90;;;;;;4216305;28;20178;-89
2022/07/28 08:31:15;;;;;;;4.43;1.00;;;20.60;99.90;;;;;;4199588;28;20232;-88
2022/07/28 08:33:20;;;;;;;3.85;1.25;;;20.70;99.90;;;;;;4199800;28;20709;-91
2022/07/28 08:35:21;;;;;;;4.95;1.10;;;21.10;99.90;;;;;;4199705;28;20531;-91
2022/07/28 08:37:21;;;;;;;3.28;0.88;;;21.90;99.90;;;;;;4216478;28;20208;-89
2022/07/28 08:39:22;;;;;;;4.78;1.52;;;22.50;99.90;;;;;;4216263;28;20177;-89
2022/07/28 08:41:50;;;;;;;3.85;1.10;;;22.80;99.90;;;;;;4216300;28;20261;-90
2022/07/28 08:43:51;;;;;;;5.88;1.20;;;22.90;99.90;;;;;;4193869;28;20646;-91
2022/07/28 08:45:53;;;;;;;3.22;0.88;;;23.00;99.90;;;;;;4198386;28;20222;-91
2022/07/28 08:47:56;;;;;;;7.57;1.25;;;22.50;99.90;;;;;;4216019;28;20220;-90
2022/07/28 08:49:58;;;;;;;7.38;1.02;;;22.30;99.90;;;;;;4215879;28;20240;-88
2022/07/28 08:52:01;;;;;;;3.28;0.93;;;22.30;99.90;;;;;;4215798;28;20632;-91
2022/07/28 08:54:02;;;;;;;4.55;1.05;;;22.10;99.90;;;;;;4199284;28;20179;-88
2022/07/28 08:56:06;;;;;;;7.05;1.38;;;21.70;99.90;;;;;;4216080;28;20216;-90
2022/07/28 08:58:09;;;;;;;4.68;1.00;;;21.40;99.90;;;;;;4215784;28;20178;-89
2022/07/28 09:00:11;;;;;;;8.63;1.45;;;21.20;99.90;;;;;;4215685;28;20170;-88
2022/07/28 09:02:13;;;;;;;6.72;1.52;;;21.40;99.90;;;;;;4215520;28;20194;-91
2022/07/28 09:04:14;;;;;;;7.03;0.75;;;22.00;99.90;;;;;;4198817;28;20174;-88
2022/07/28 09:06:16;;;;;;;5.70;0.93;;;22.40;99.90;;;;;;4199105;28;20175;-90
2022/07/28 09:08:18;;;;;;;5.18;0.88;;;22.60;99.90;;;;;;4198958;28;20267;-88
2022/07/28 09:10:19;;;;;;;3.83;0.95;;;22.50;99.90;;;;;;4198661;28;20186;-88
2022/07/28 09:12:19;;;;;;;7.20;1.10;;;23.00;99.90;;;;;;4215559;28;20593;-88
2022/07/28 09:14:20;;;;;;;5.97;0.73;;;23.80;99.90;;;;;;4215567;28;20639;-88
2022/07/28 09:16:21;;;;;;;6.25;0.88;;;24.50;99.90;;;;;;4198929;28;20646;-88
2022/07/28 09:18:22;;;;;;;3.13;0.90;;;24.70;99.90;;;;;;4198599;28;20214;-89
2022/07/28 09:20:23;;;;;;;4.22;0.80;;;25.00;99.90;;;;;;4198770;28;20677;-88
2022/07/28 09:22:24;;;;;;;3.97;1.00;;;25.00;99.90;;;;;;4198671;28;20282;-91
2022/07/28 09:24:32;;;;;;;2.35;0.68;;;25.20;99.90;;;;;;4215584;28;20197;-90
2022/07/28 09:26:32;;;;;;;6.30;1.27;;;25.50;99.90;;;;;;4215655;28;20269;-89
2022/07/28 09:28:49;;;;;;;4.55;0.90;;;25.30;99.90;;;;;;4215538;28;20170;-88
2022/07/28 09:30:49;;;;;;;7.53;1.20;;;25.30;99.90;;;;;;4198940;28;20659;-89
2022/07/28 09:32:50;;;;;;;4.38;1.00;;;25.40;99.90;;;;;;4198452;28;20273;-89
2022/07/28 09:34:51;;;;;;;2.13;0.90;;;25.10;99.90;;;;;;4198739;28;20178;-88
2022/07/28 09:36:52;;;;;;;2.85;0.70;;;24.50;99.90;;;;;;4198612;28;20265;-89
2022/07/28 09:38:53;;;;;;;5.38;0.93;;;24.60;99.90;;;;;;4215449;28;20172;-87
2022/07/28 09:41:02;;;;;;;4.25;0.90;;;24.50;99.90;;;;;;4215462;28;20173;-90
2022/07/28 09:43:03;;;;;;;6.20;0.75;;;24.50;99.90;;;;;;4198447;28;20277;-88
2022/07/28 09:45:06;;;;;;;3.08;0.88;;;24.30;99.90;;;;;;4198333;28;20218;-88
2022/07/28 09:47:27;;;;;;;7.47;0.90;;;24.10;99.90;;;;;;4198240;28;20171;-89
2022/07/28 09:49:41;;;;;;;5.30;1.05;;;24.20;99.90;;;;;;4215095;28;20174;-88
2022/07/28 09:51:59;;;;;;;2.17;0.70;;;24.40;99.90;;;;;;4215220;28;20186;-89
2022/07/28 09:54:18;;;;;;;7.60;0.90;;;24.70;99.90;;;;;;4198373;28;20210;-89
2022/07/28 09:56:19;;;;;;;3.08;1.00;;;24.90;99.90;;;;;;4215163;28;20241;-88
2022/07/28 09:58:20;;;;;;;4.28;1.05;;;24.90;99.90;;;;;;4215056;28;20174;-89
2022/07/28 10:00:27;;;;;;;4.40;1.58;;;24.90;99.90;;;;;;4197956;28;20193;-89
2022/07/28 10:02:32;;;;;;;5.72;1.20;;;24.70;99.90;;;;;;4214997;28;20262;-88
2022/07/28 10:04:39;;;;;;;7.85;0.80;;;24.50;99.90;;;;;;4214822;28;20205;-88
2022/07/28 10:06:39;;;;;;;4.30;0.77;;;24.50;99.90;;;;;;4214880;28;20184;-88
2022/07/28 10:08:48;;;;;;;5.97;1.15;;;24.10;99.90;;;;;;4214690;28;20547;-89
2022/07/28 10:10:59;;;;;;;4.93;0.90;;;23.60;99.90;;;;;;4198147;28;20170;-89
2022/07/28 10:13:06;;;;;;;4.28;1.05;;;23.30;99.90;;;;;;4214681;28;20197;-89
2022/07/28 10:17:36;;;;;;;4.85;1.30;;;23.00;99.90;;;;;;4214680;28;20649;-88
2022/07/28 10:19:37;;;;;;;6.18;0.95;;;22.70;99.90;;;;;;4197720;28;20238;-89
2022/07/28 10:21:45;;;;;;;1.30;0.55;;;22.60;99.90;;;;;;4197825;28;20217;-87
2022/07/28 10:24:04;;;;;;;3.72;0.80;;;22.40;99.90;;;;;;4197994;28;20172;-88
2022/07/28 10:26:08;;;;;;;3.22;0.75;;;22.40;99.90;;;;;;4214736;28;20189;-88
2022/07/28 10:28:15;;;;;;;4.13;0.80;;;22.50;99.90;;;;;;4197967;28;20720;-89
2022/07/28 10:30:16;;;;;;;4.80;1.00;;;22.60;99.90;;;;;;4214569;28;20173;-88
2022/07/28 10:32:17;;;;;;;3.40;0.70;;;22.50;99.90;;;;;;4197785;28;20685;-88
2022/07/28 10:34:41;;;;;;;4.35;0.95;;;22.30;99.90;;;;;;4197930;28;20258;-89
2022/07/28 10:36:43;;;;;;;2.80;0.90;;;22.30;99.90;;;;;;4197453;28;20185;-88
2022/07/28 10:38:44;;;;;;;3.42;0.75;;;22.40;99.90;;;;;;4214748;28;20180;-88
2022/07/28 10:40:46;;;;;;;5.25;1.15;;;22.50;99.90;;;;;;4197738;28;20178;-89
2022/07/28 10:42:47;;;;;;;6.22;1.40;;;22.70;99.90;;;;;;4197683;28;20198;-91
2022/07/28 10:44:48;;;;;;;9.65;3.03;;;22.70;99.90;;;;;;4214350;28;20201;-88